sensor_id;sensor_type;location;lat;lon;timestamp;P1;durP1;ratioP1;P2;durP2;ratioP2
52106;SDS011;38105;52.968;5.974;2023-04-24T00:01:27;8.15;;;6.28;;
52106;SDS011;38105;52.968;5.974;2023-04-24T00:03:54;6.65;;;5.95;;
52106;SDS011;38105;52.968;5.974;2023-04-24T00:06:24;5.60;;;4.95;;
52106;SDS011;38105;52.968;5.974;2023-04-24T00:08:58;6.57;;;5.47;;
52106;SDS011;38105;52.968;5.974;2023-04-24T00:11:25;5.25;;;4.72;;
52106;SDS011;38105;52.968;5.974;2023-04-24T00:13:51;7.43;;;5.00;;
52106;SDS011;38105;52.968;5.974;2023-04-24T00:16:17;6.57;;;4.70;;
52106;SDS011;38105;52.968;5.974;2023-04-24T00:18:43;5.18;;;4.68;;
52106;SDS011;38105;52.968;5.974;2023-04-24T00:21:10;5.55;;;5.05;;
52106;SDS011;38105;52.968;5.974;2023-04-24T00:23:36;7.20;;;5.13;;
52106;SDS011;38105;52.968;5.974;2023-04-24T00:26:02;8.50;;;5.28;;
52106;SDS011;38105;52.968;5.974;2023-04-24T00:28:27;8.82;;;5.70;;
52106;SDS011;38105;52.968;5.974;2023-04-24T00:30:53;6.82;;;5.50;;
52106;SDS011;38105;52.968;5.974;2023-04-24T00:33:19;7.95;;;4.90;;
52106;SDS011;38105;52.968;5.974;2023-04-24T00:35:45;5.70;;;5.13;;
52106;SDS011;38105;52.968;5.974;2023-04-24T00:38:11;6.05;;;5.43;;
52106;SDS011;38105;52.968;5.974;2023-04-24T00:40:36;5.93;;;5.43;;
52106;SDS011;38105;52.968;5.974;2023-04-24T00:43:02;5.45;;;4.95;;
52106;SDS011;38105;52.968;5.974;2023-04-24T00:45:28;6.00;;;5.05;;
52106;SDS011;38105;52.968;5.974;2023-04-24T00:47:56;7.68;;;5.15;;
52106;SDS011;38105;52.968;5.974;2023-04-24T00:50:22;6.30;;;5.00;;
52106;SDS011;38105;52.968;5.974;2023-04-24T00:52:49;5.22;;;4.72;;
52106;SDS011;38105;52.968;5.974;2023-04-24T00:55:15;7.03;;;4.78;;
52106;SDS011;38105;52.968;5.974;2023-04-24T00:57:41;4.88;;;4.35;;
52106;SDS011;38105;52.968;5.974;2023-04-24T01:00:08;5.68;;;5.07;;
52106;SDS011;38105;52.968;5.974;2023-04-24T01:02:40;6.47;;;5.72;;
52106;SDS011;38105;52.968;5.974;2023-04-24T01:07:40;6.90;;;6.25;;
52106;SDS011;38105;52.968;5.974;2023-04-24T01:10:09;8.20;;;6.63;;
52106;SDS011;38105;52.968;5.974;2023-04-24T01:12:35;7.30;;;6.60;;
52106;SDS011;38105;52.968;5.974;2023-04-24T01:15:02;7.22;;;5.95;;
52106;SDS011;38105;52.968;5.974;2023-04-24T01:17:29;8.60;;;7.50;;
52106;SDS011;38105;52.968;5.974;2023-04-24T01:19:54;8.80;;;7.45;;
52106;SDS011;38105;52.968;5.974;2023-04-24T01:22:22;7.80;;;6.95;;
52106;SDS011;38105;52.968;5.974;2023-04-24T01:24:48;8.50;;;7.47;;
52106;SDS011;38105;52.968;5.974;2023-04-24T01:27:14;8.52;;;7.78;;
52106;SDS011;38105;52.968;5.974;2023-04-24T01:29:40;9.48;;;8.50;;
52106;SDS011;38105;52.968;5.974;2023-04-24T01:32:06;8.85;;;7.63;;
52106;SDS011;38105;52.968;5.974;2023-04-24T01:34:32;8.85;;;8.05;;
52106;SDS011;38105;52.968;5.974;2023-04-24T01:36:59;9.57;;;8.63;;
52106;SDS011;38105;52.968;5.974;2023-04-24T01:39:25;11.85;;;8.93;;
52106;SDS011;38105;52.968;5.974;2023-04-24T01:41:53;9.43;;;8.20;;
52106;SDS011;38105;52.968;5.974;2023-04-24T01:44:20;9.65;;;8.68;;
52106;SDS011;38105;52.968;5.974;2023-04-24T01:46:46;11.40;;;9.15;;
52106;SDS011;38105;52.968;5.974;2023-04-24T01:49:11;9.48;;;8.57;;
52106;SDS011;38105;52.968;5.974;2023-04-24T01:51:37;9.15;;;8.27;;
52106;SDS011;38105;52.968;5.974;2023-04-24T01:54:03;9.13;;;8.25;;
52106;SDS011;38105;52.968;5.974;2023-04-24T01:56:29;9.93;;;8.95;;
52106;SDS011;38105;52.968;5.974;2023-04-24T01:58:55;9.80;;;8.90;;
52106;SDS011;38105;52.968;5.974;2023-04-24T02:01:23;10.82;;;9.82;;
52106;SDS011;38105;52.968;5.974;2023-04-24T02:03:50;9.63;;;8.63;;
52106;SDS011;38105;52.968;5.974;2023-04-24T02:06:15;9.70;;;8.90;;
52106;SDS011;38105;52.968;5.974;2023-04-24T02:08:41;11.23;;;9.82;;
52106;SDS011;38105;52.968;5.974;2023-04-24T02:11:10;10.73;;;9.65;;
52106;SDS011;38105;52.968;5.974;2023-04-24T02:13:36;11.00;;;10.07;;
52106;SDS011;38105;52.968;5.974;2023-04-24T02:16:01;17.63;;;11.75;;
52106;SDS011;38105;52.968;5.974;2023-04-24T02:18:27;11.52;;;10.43;;
52106;SDS011;38105;52.968;5.974;2023-04-24T02:20:53;14.70;;;11.80;;
52106;SDS011;38105;52.968;5.974;2023-04-24T02:23:19;12.13;;;10.93;;
52106;SDS011;38105;52.968;5.974;2023-04-24T02:25:44;12.38;;;11.27;;
52106;SDS011;38105;52.968;5.974;2023-04-24T02:28:10;12.43;;;11.23;;
52106;SDS011;38105;52.968;5.974;2023-04-24T02:30:36;14.15;;;12.85;;
52106;SDS011;38105;52.968;5.974;2023-04-24T02:33:02;14.10;;;12.30;;
52106;SDS011;38105;52.968;5.974;2023-04-24T02:35:28;13.82;;;12.63;;
52106;SDS011;38105;52.968;5.974;2023-04-24T02:37:54;15.18;;;13.80;;
52106;SDS011;38105;52.968;5.974;2023-04-24T02:40:19;15.13;;;13.73;;
52106;SDS011;38105;52.968;5.974;2023-04-24T02:42:45;14.38;;;12.98;;
52106;SDS011;38105;52.968;5.974;2023-04-24T02:45:10;14.55;;;13.15;;
52106;SDS011;38105;52.968;5.974;2023-04-24T02:47:36;17.65;;;15.80;;
52106;SDS011;38105;52.968;5.974;2023-04-24T02:50:02;15.85;;;14.32;;
52106;SDS011;38105;52.968;5.974;2023-04-24T02:52:28;15.05;;;13.65;;
52106;SDS011;38105;52.968;5.974;2023-04-24T02:54:54;17.88;;;16.02;;
52106;SDS011;38105;52.968;5.974;2023-04-24T02:57:19;19.15;;;16.30;;
52106;SDS011;38105;52.968;5.974;2023-04-24T02:59:45;18.23;;;16.13;;
52106;SDS011;38105;52.968;5.974;2023-04-24T03:02:11;18.38;;;16.58;;
52106;SDS011;38105;52.968;5.974;2023-04-24T03:04:37;20.02;;;17.33;;
52106;SDS011;38105;52.968;5.974;2023-04-24T03:07:02;19.40;;;17.48;;
52106;SDS011;38105;52.968;5.974;2023-04-24T03:09:29;20.60;;;18.50;;
52106;SDS011;38105;52.968;5.974;2023-04-24T03:11:55;18.70;;;16.83;;
52106;SDS011;38105;52.968;5.974;2023-04-24T03:14:21;19.15;;;17.35;;
52106;SDS011;38105;52.968;5.974;2023-04-24T03:16:47;22.25;;;20.05;;
52106;SDS011;38105;52.968;5.974;2023-04-24T03:19:12;21.98;;;19.45;;
52106;SDS011;38105;52.968;5.974;2023-04-24T03:21:38;21.15;;;18.90;;
52106;SDS011;38105;52.968;5.974;2023-04-24T03:24:06;23.10;;;19.88;;
52106;SDS011;38105;52.968;5.974;2023-04-24T03:26:35;15.57;;;14.05;;
52106;SDS011;38105;52.968;5.974;2023-04-24T03:29:01;7.25;;;6.40;;
52106;SDS011;38105;52.968;5.974;2023-04-24T03:31:26;6.07;;;5.25;;
52106;SDS011;38105;52.968;5.974;2023-04-24T03:33:52;5.05;;;4.55;;
52106;SDS011;38105;52.968;5.974;2023-04-24T03:36:17;6.28;;;4.40;;
52106;SDS011;38105;52.968;5.974;2023-04-24T03:38:44;4.10;;;3.70;;
52106;SDS011;38105;52.968;5.974;2023-04-24T03:41:10;4.88;;;3.80;;
52106;SDS011;38105;52.968;5.974;2023-04-24T03:43:36;3.65;;;3.20;;
52106;SDS011;38105;52.968;5.974;2023-04-24T03:46:02;4.80;;;4.30;;
52106;SDS011;38105;52.968;5.974;2023-04-24T03:48:28;5.13;;;4.53;;
52106;SDS011;38105;52.968;5.974;2023-04-24T03:50:53;5.65;;;4.90;;
52106;SDS011;38105;52.968;5.974;2023-04-24T03:53:19;6.68;;;5.97;;
52106;SDS011;38105;52.968;5.974;2023-04-24T03:55:45;7.60;;;6.80;;
52106;SDS011;38105;52.968;5.974;2023-04-24T03:58:11;8.93;;;8.02;;
52106;SDS011;38105;52.968;5.974;2023-04-24T04:00:38;10.60;;;9.57;;
52106;SDS011;38105;52.968;5.974;2023-04-24T04:03:05;10.25;;;9.35;;
52106;SDS011;38105;52.968;5.974;2023-04-24T04:05:31;12.25;;;11.00;;
52106;SDS011;38105;52.968;5.974;2023-04-24T04:07:57;12.23;;;10.70;;
52106;SDS011;38105;52.968;5.974;2023-04-24T04:10:22;12.10;;;11.00;;
52106;SDS011;38105;52.968;5.974;2023-04-24T04:12:48;12.80;;;11.60;;
52106;SDS011;38105;52.968;5.974;2023-04-24T04:15:14;15.00;;;13.30;;
52106;SDS011;38105;52.968;5.974;2023-04-24T04:17:40;13.98;;;12.52;;
52106;SDS011;38105;52.968;5.974;2023-04-24T04:20:06;12.88;;;11.52;;
52106;SDS011;38105;52.968;5.974;2023-04-24T04:22:36;12.85;;;11.48;;
52106;SDS011;38105;52.968;5.974;2023-04-24T04:25:02;13.07;;;11.55;;
52106;SDS011;38105;52.968;5.974;2023-04-24T04:27:28;17.27;;;13.13;;
52106;SDS011;38105;52.968;5.974;2023-04-24T04:29:57;11.15;;;9.90;;
52106;SDS011;38105;52.968;5.974;2023-04-24T04:32:26;7.97;;;7.18;;
52106;SDS011;38105;52.968;5.974;2023-04-24T04:34:52;8.77;;;6.43;;
52106;SDS011;38105;52.968;5.974;2023-04-24T04:37:18;9.27;;;6.00;;
52106;SDS011;38105;52.968;5.974;2023-04-24T04:39:44;8.23;;;5.53;;
52106;SDS011;38105;52.968;5.974;2023-04-24T04:42:09;7.50;;;5.30;;
52106;SDS011;38105;52.968;5.974;2023-04-24T04:44:35;6.55;;;4.93;;
52106;SDS011;38105;52.968;5.974;2023-04-24T04:47:01;7.20;;;5.03;;
52106;SDS011;38105;52.968;5.974;2023-04-24T04:49:31;6.63;;;5.40;;
52106;SDS011;38105;52.968;5.974;2023-04-24T04:51:57;6.13;;;5.22;;
52106;SDS011;38105;52.968;5.974;2023-04-24T04:54:22;5.78;;;4.80;;
52106;SDS011;38105;52.968;5.974;2023-04-24T04:56:51;5.97;;;4.80;;
52106;SDS011;38105;52.968;5.974;2023-04-24T04:59:17;5.68;;;5.00;;
52106;SDS011;38105;52.968;5.974;2023-04-24T05:01:43;6.63;;;5.30;;
52106;SDS011;38105;52.968;5.974;2023-04-24T05:04:08;5.50;;;4.60;;
52106;SDS011;38105;52.968;5.974;2023-04-24T05:06:34;4.97;;;4.10;;
52106;SDS011;38105;52.968;5.974;2023-04-24T05:09:00;4.97;;;3.60;;
52106;SDS011;38105;52.968;5.974;2023-04-24T05:11:25;3.80;;;3.40;;
52106;SDS011;38105;52.968;5.974;2023-04-24T05:13:51;4.60;;;2.90;;
52106;SDS011;38105;52.968;5.974;2023-04-24T05:16:16;3.20;;;2.45;;
52106;SDS011;38105;52.968;5.974;2023-04-24T05:18:42;3.25;;;2.30;;
52106;SDS011;38105;52.968;5.974;2023-04-24T05:21:08;3.15;;;1.90;;
52106;SDS011;38105;52.968;5.974;2023-04-24T05:23:33;3.58;;;1.90;;
52106;SDS011;38105;52.968;5.974;2023-04-24T05:25:59;4.05;;;2.35;;
52106;SDS011;38105;52.968;5.974;2023-04-24T05:28:25;5.80;;;3.47;;
52106;SDS011;38105;52.968;5.974;2023-04-24T05:30:54;7.43;;;3.50;;
52106;SDS011;38105;52.968;5.974;2023-04-24T05:33:20;7.82;;;4.00;;
52106;SDS011;38105;52.968;5.974;2023-04-24T05:35:47;6.53;;;4.60;;
52106;SDS011;38105;52.968;5.974;2023-04-24T05:38:13;9.75;;;6.65;;
52106;SDS011;38105;52.968;5.974;2023-04-24T05:40:39;7.45;;;5.88;;
52106;SDS011;38105;52.968;5.974;2023-04-24T05:43:05;11.65;;;7.57;;
52106;SDS011;38105;52.968;5.974;2023-04-24T05:45:30;11.40;;;7.78;;
52106;SDS011;38105;52.968;5.974;2023-04-24T05:47:56;12.63;;;7.15;;
52106;SDS011;38105;52.968;5.974;2023-04-24T05:50:22;11.48;;;7.25;;
52106;SDS011;38105;52.968;5.974;2023-04-24T05:52:48;14.18;;;7.22;;
52106;SDS011;38105;52.968;5.974;2023-04-24T05:55:14;11.40;;;7.80;;
52106;SDS011;38105;52.968;5.974;2023-04-24T05:57:42;11.95;;;8.25;;
52106;SDS011;38105;52.968;5.974;2023-04-24T06:00:08;9.75;;;7.47;;
52106;SDS011;38105;52.968;5.974;2023-04-24T06:02:37;9.45;;;7.50;;
52106;SDS011;38105;52.968;5.974;2023-04-24T06:05:03;11.82;;;7.00;;
52106;SDS011;38105;52.968;5.974;2023-04-24T06:07:29;10.32;;;6.18;;
52106;SDS011;38105;52.968;5.974;2023-04-24T06:09:56;6.28;;;4.50;;
52106;SDS011;38105;52.968;5.974;2023-04-24T06:12:22;7.10;;;4.60;;
52106;SDS011;38105;52.968;5.974;2023-04-24T06:14:48;4.13;;;3.10;;
52106;SDS011;38105;52.968;5.974;2023-04-24T06:17:13;5.75;;;3.20;;
52106;SDS011;38105;52.968;5.974;2023-04-24T06:19:40;3.58;;;2.30;;
52106;SDS011;38105;52.968;5.974;2023-04-24T06:22:06;4.28;;;2.25;;
52106;SDS011;38105;52.968;5.974;2023-04-24T06:24:33;3.30;;;2.05;;
52106;SDS011;38105;52.968;5.974;2023-04-24T06:26:59;3.35;;;2.28;;
52106;SDS011;38105;52.968;5.974;2023-04-24T06:29:26;5.13;;;2.47;;
52106;SDS011;38105;52.968;5.974;2023-04-24T06:31:52;3.42;;;2.13;;
52106;SDS011;38105;52.968;5.974;2023-04-24T06:34:18;5.65;;;1.80;;
52106;SDS011;38105;52.968;5.974;2023-04-24T06:36:44;3.28;;;1.80;;
52106;SDS011;38105;52.968;5.974;2023-04-24T06:39:09;5.70;;;2.00;;
52106;SDS011;38105;52.968;5.974;2023-04-24T06:41:35;3.38;;;1.63;;
52106;SDS011;38105;52.968;5.974;2023-04-24T06:44:01;5.90;;;2.10;;
52106;SDS011;38105;52.968;5.974;2023-04-24T06:46:26;5.80;;;2.17;;
52106;SDS011;38105;52.968;5.974;2023-04-24T06:48:55;4.05;;;1.63;;
52106;SDS011;38105;52.968;5.974;2023-04-24T06:51:22;4.85;;;1.75;;
52106;SDS011;38105;52.968;5.974;2023-04-24T06:53:48;7.28;;;2.50;;
52106;SDS011;38105;52.968;5.974;2023-04-24T06:56:15;12.27;;;5.40;;
52106;SDS011;38105;52.968;5.974;2023-04-24T06:58:40;11.43;;;6.18;;
52106;SDS011;38105;52.968;5.974;2023-04-24T07:01:07;12.20;;;7.50;;
52106;SDS011;38105;52.968;5.974;2023-04-24T07:03:32;15.23;;;8.95;;
52106;SDS011;38105;52.968;5.974;2023-04-24T07:05:58;20.92;;;10.50;;
52106;SDS011;38105;52.968;5.974;2023-04-24T07:08:24;18.52;;;10.88;;
52106;SDS011;38105;52.968;5.974;2023-04-24T07:10:50;17.65;;;12.18;;
52106;SDS011;38105;52.968;5.974;2023-04-24T07:13:16;24.67;;;13.20;;
52106;SDS011;38105;52.968;5.974;2023-04-24T07:15:42;29.85;;;15.35;;
52106;SDS011;38105;52.968;5.974;2023-04-24T07:18:08;26.42;;;16.38;;
52106;SDS011;38105;52.968;5.974;2023-04-24T07:20:34;29.95;;;17.05;;
52106;SDS011;38105;52.968;5.974;2023-04-24T07:23:00;31.50;;;18.45;;
52106;SDS011;38105;52.968;5.974;2023-04-24T07:25:26;28.85;;;16.67;;
52106;SDS011;38105;52.968;5.974;2023-04-24T07:27:53;21.38;;;14.23;;
52106;SDS011;38105;52.968;5.974;2023-04-24T07:30:18;20.95;;;13.07;;
52106;SDS011;38105;52.968;5.974;2023-04-24T07:32:44;21.05;;;13.00;;
52106;SDS011;38105;52.968;5.974;2023-04-24T07:35:10;19.52;;;12.43;;
52106;SDS011;38105;52.968;5.974;2023-04-24T07:37:36;21.83;;;14.18;;
52106;SDS011;38105;52.968;5.974;2023-04-24T07:40:01;21.75;;;13.95;;
52106;SDS011;38105;52.968;5.974;2023-04-24T07:42:28;26.48;;;15.95;;
52106;SDS011;38105;52.968;5.974;2023-04-24T07:44:55;28.23;;;17.02;;
52106;SDS011;38105;52.968;5.974;2023-04-24T07:47:21;29.38;;;17.42;;
52106;SDS011;38105;52.968;5.974;2023-04-24T07:49:46;24.23;;;18.38;;
52106;SDS011;38105;52.968;5.974;2023-04-24T07:52:12;26.02;;;19.17;;
52106;SDS011;38105;52.968;5.974;2023-04-24T07:54:38;25.88;;;17.40;;
52106;SDS011;38105;52.968;5.974;2023-04-24T07:57:03;25.30;;;15.85;;
52106;SDS011;38105;52.968;5.974;2023-04-24T07:59:31;22.85;;;15.25;;
52106;SDS011;38105;52.968;5.974;2023-04-24T08:01:57;23.42;;;16.13;;
52106;SDS011;38105;52.968;5.974;2023-04-24T08:04:22;17.13;;;13.98;;
52106;SDS011;38105;52.968;5.974;2023-04-24T08:06:48;23.38;;;14.27;;
52106;SDS011;38105;52.968;5.974;2023-04-24T08:09:14;18.58;;;13.98;;
52106;SDS011;38105;52.968;5.974;2023-04-24T08:11:41;16.48;;;11.88;;
52106;SDS011;38105;52.968;5.974;2023-04-24T08:14:06;21.13;;;11.45;;
52106;SDS011;38105;52.968;5.974;2023-04-24T08:16:32;16.58;;;10.50;;
52106;SDS011;38105;52.968;5.974;2023-04-24T08:18:58;15.18;;;9.57;;
52106;SDS011;38105;52.968;5.974;2023-04-24T08:21:24;19.85;;;8.50;;
52106;SDS011;38105;52.968;5.974;2023-04-24T08:23:51;20.10;;;9.65;;
52106;SDS011;38105;52.968;5.974;2023-04-24T08:26:16;16.35;;;8.55;;
52106;SDS011;38105;52.968;5.974;2023-04-24T08:28:42;14.38;;;8.23;;
52106;SDS011;38105;52.968;5.974;2023-04-24T08:31:08;15.43;;;8.25;;
52106;SDS011;38105;52.968;5.974;2023-04-24T08:33:34;17.23;;;8.20;;
52106;SDS011;38105;52.968;5.974;2023-04-24T08:36:03;16.40;;;7.60;;
52106;SDS011;38105;52.968;5.974;2023-04-24T08:38:29;19.40;;;7.40;;
52106;SDS011;38105;52.968;5.974;2023-04-24T08:40:59;16.38;;;7.43;;
52106;SDS011;38105;52.968;5.974;2023-04-24T08:43:26;14.90;;;7.22;;
52106;SDS011;38105;52.968;5.974;2023-04-24T08:45:52;20.75;;;7.75;;
52106;SDS011;38105;52.968;5.974;2023-04-24T08:48:20;14.80;;;7.10;;
52106;SDS011;38105;52.968;5.974;2023-04-24T08:50:48;18.40;;;7.00;;
52106;SDS011;38105;52.968;5.974;2023-04-24T08:53:17;12.55;;;6.15;;
52106;SDS011;38105;52.968;5.974;2023-04-24T08:55:43;12.93;;;6.03;;
52106;SDS011;38105;52.968;5.974;2023-04-24T08:58:12;12.55;;;5.88;;
52106;SDS011;38105;52.968;5.974;2023-04-24T09:00:38;14.13;;;5.40;;
52106;SDS011;38105;52.968;5.974;2023-04-24T09:03:05;10.57;;;5.57;;
52106;SDS011;38105;52.968;5.974;2023-04-24T09:05:31;13.52;;;4.88;;
52106;SDS011;38105;52.968;5.974;2023-04-24T09:07:58;11.63;;;4.90;;
52106;SDS011;38105;52.968;5.974;2023-04-24T09:10:26;8.85;;;3.70;;
52106;SDS011;38105;52.968;5.974;2023-04-24T09:12:55;8.13;;;3.80;;
52106;SDS011;38105;52.968;5.974;2023-04-24T09:15:23;12.55;;;4.25;;
52106;SDS011;38105;52.968;5.974;2023-04-24T09:17:50;8.50;;;3.47;;
52106;SDS011;38105;52.968;5.974;2023-04-24T09:20:16;14.27;;;4.22;;
52106;SDS011;38105;52.968;5.974;2023-04-24T09:22:42;12.73;;;3.75;;
52106;SDS011;38105;52.968;5.974;2023-04-24T09:25:09;11.02;;;3.40;;
52106;SDS011;38105;52.968;5.974;2023-04-24T09:27:37;15.10;;;4.32;;
52106;SDS011;38105;52.968;5.974;2023-04-24T09:30:09;13.95;;;4.20;;
52106;SDS011;38105;52.968;5.974;2023-04-24T09:32:35;17.23;;;4.30;;
52106;SDS011;38105;52.968;5.974;2023-04-24T09:35:19;12.52;;;3.90;;
52106;SDS011;38105;52.968;5.974;2023-04-24T09:37:45;19.42;;;4.47;;
52106;SDS011;38105;52.968;5.974;2023-04-24T09:42:43;14.77;;;3.75;;
52106;SDS011;38105;52.968;5.974;2023-04-24T09:45:10;26.95;;;4.97;;
52106;SDS011;38105;52.968;5.974;2023-04-24T09:47:37;19.08;;;4.00;;
52106;SDS011;38105;52.968;5.974;2023-04-24T09:50:10;19.80;;;4.47;;
52106;SDS011;38105;52.968;5.974;2023-04-24T09:52:44;15.40;;;3.58;;
52106;SDS011;38105;52.968;5.974;2023-04-24T09:55:12;14.10;;;3.65;;
52106;SDS011;38105;52.968;5.974;2023-04-24T09:57:48;10.55;;;2.90;;
52106;SDS011;38105;52.968;5.974;2023-04-24T10:00:19;12.07;;;2.63;;
52106;SDS011;38105;52.968;5.974;2023-04-24T10:02:49;14.45;;;3.70;;
52106;SDS011;38105;52.968;5.974;2023-04-24T10:05:15;16.80;;;3.08;;
52106;SDS011;38105;52.968;5.974;2023-04-24T10:07:43;15.07;;;3.58;;
52106;SDS011;38105;52.968;5.974;2023-04-24T10:10:08;14.60;;;3.20;;
52106;SDS011;38105;52.968;5.974;2023-04-24T10:12:34;14.32;;;2.58;;
52106;SDS011;38105;52.968;5.974;2023-04-24T10:15:00;14.07;;;2.92;;
52106;SDS011;38105;52.968;5.974;2023-04-24T10:17:27;12.60;;;2.78;;
52106;SDS011;38105;52.968;5.974;2023-04-24T10:19:54;16.27;;;4.00;;
52106;SDS011;38105;52.968;5.974;2023-04-24T10:22:21;16.02;;;3.17;;
52106;SDS011;38105;52.968;5.974;2023-04-24T10:24:47;17.70;;;2.88;;
52106;SDS011;38105;52.968;5.974;2023-04-24T10:27:15;14.73;;;3.05;;
52106;SDS011;38105;52.968;5.974;2023-04-24T10:29:42;10.88;;;2.60;;
52106;SDS011;38105;52.968;5.974;2023-04-24T10:32:09;13.63;;;2.42;;
52106;SDS011;38105;52.968;5.974;2023-04-24T10:34:36;13.55;;;2.63;;
52106;SDS011;38105;52.968;5.974;2023-04-24T10:37:02;17.58;;;3.22;;
52106;SDS011;38105;52.968;5.974;2023-04-24T10:39:28;9.30;;;1.90;;
52106;SDS011;38105;52.968;5.974;2023-04-24T10:41:55;11.73;;;2.35;;
52106;SDS011;38105;52.968;5.974;2023-04-24T10:44:22;14.52;;;2.65;;
52106;SDS011;38105;52.968;5.974;2023-04-24T10:46:53;8.02;;;2.08;;
52106;SDS011;38105;52.968;5.974;2023-04-24T10:49:28;12.13;;;2.17;;
52106;SDS011;38105;52.968;5.974;2023-04-24T10:51:59;12.23;;;2.00;;
52106;SDS011;38105;52.968;5.974;2023-04-24T10:59:44;12.57;;;2.50;;
52106;SDS011;38105;52.968;5.974;2023-04-24T11:02:13;14.35;;;2.92;;
52106;SDS011;38105;52.968;5.974;2023-04-24T11:04:40;13.32;;;2.80;;
52106;SDS011;38105;52.968;5.974;2023-04-24T11:07:08;9.75;;;1.98;;
52106;SDS011;38105;52.968;5.974;2023-04-24T11:09:34;8.50;;;2.20;;
52106;SDS011;38105;52.968;5.974;2023-04-24T11:12:08;18.40;;;2.25;;
52106;SDS011;38105;52.968;5.974;2023-04-24T11:17:30;10.75;;;1.85;;
52106;SDS011;38105;52.968;5.974;2023-04-24T11:20:04;9.10;;;1.80;;
52106;SDS011;38105;52.968;5.974;2023-04-24T11:22:33;6.82;;;1.60;;
52106;SDS011;38105;52.968;5.974;2023-04-24T11:25:00;9.65;;;2.25;;
52106;SDS011;38105;52.968;5.974;2023-04-24T11:27:27;7.85;;;1.70;;
52106;SDS011;38105;52.968;5.974;2023-04-24T11:30:18;7.50;;;1.30;;
52106;SDS011;38105;52.968;5.974;2023-04-24T11:32:49;8.50;;;1.38;;
52106;SDS011;38105;52.968;5.974;2023-04-24T11:35:17;8.88;;;1.50;;
52106;SDS011;38105;52.968;5.974;2023-04-24T11:37:50;6.75;;;1.27;;
52106;SDS011;38105;52.968;5.974;2023-04-24T11:40:19;6.68;;;1.17;;
52106;SDS011;38105;52.968;5.974;2023-04-24T11:42:48;4.82;;;0.75;;
52106;SDS011;38105;52.968;5.974;2023-04-24T11:45:22;6.22;;;1.05;;
52106;SDS011;38105;52.968;5.974;2023-04-24T11:47:49;6.07;;;1.00;;
52106;SDS011;38105;52.968;5.974;2023-04-24T11:50:16;7.22;;;1.13;;
52106;SDS011;38105;52.968;5.974;2023-04-24T11:52:44;5.63;;;1.08;;
52106;SDS011;38105;52.968;5.974;2023-04-24T11:57:39;5.25;;;1.13;;
52106;SDS011;38105;52.968;5.974;2023-04-24T12:00:14;7.18;;;1.00;;
52106;SDS011;38105;52.968;5.974;2023-04-24T12:02:41;4.65;;;0.95;;
52106;SDS011;38105;52.968;5.974;2023-04-24T12:05:07;7.50;;;0.90;;
52106;SDS011;38105;52.968;5.974;2023-04-24T12:07:40;5.68;;;1.13;;
52106;SDS011;38105;52.968;5.974;2023-04-24T12:10:10;6.82;;;1.38;;
52106;SDS011;38105;52.968;5.974;2023-04-24T12:12:36;7.03;;;1.20;;
52106;SDS011;38105;52.968;5.974;2023-04-24T12:15:01;7.35;;;1.10;;
52106;SDS011;38105;52.968;5.974;2023-04-24T12:17:33;11.00;;;1.23;;
52106;SDS011;38105;52.968;5.974;2023-04-24T12:25:24;8.48;;;1.08;;
52106;SDS011;38105;52.968;5.974;2023-04-24T12:27:54;5.72;;;1.10;;
52106;SDS011;38105;52.968;5.974;2023-04-24T12:30:30;5.88;;;0.95;;
52106;SDS011;38105;52.968;5.974;2023-04-24T12:32:58;5.50;;;1.05;;
52106;SDS011;38105;52.968;5.974;2023-04-24T12:35:26;7.75;;;1.02;;
52106;SDS011;38105;52.968;5.974;2023-04-24T12:37:53;7.05;;;1.00;;
52106;SDS011;38105;52.968;5.974;2023-04-24T12:40:20;10.43;;;1.08;;
52106;SDS011;38105;52.968;5.974;2023-04-24T12:42:47;5.50;;;0.80;;
52106;SDS011;38105;52.968;5.974;2023-04-24T12:45:14;5.22;;;0.70;;
52106;SDS011;38105;52.968;5.974;2023-04-24T12:47:41;4.40;;;1.35;;
52106;SDS011;38105;52.968;5.974;2023-04-24T12:50:08;7.93;;;0.80;;
52106;SDS011;38105;52.968;5.974;2023-04-24T12:52:35;7.70;;;1.13;;
52106;SDS011;38105;52.968;5.974;2023-04-24T12:55:01;6.95;;;1.33;;
52106;SDS011;38105;52.968;5.974;2023-04-24T12:57:28;10.02;;;1.40;;
52106;SDS011;38105;52.968;5.974;2023-04-24T12:59:55;9.32;;;1.38;;
52106;SDS011;38105;52.968;5.974;2023-04-24T13:02:22;6.80;;;1.08;;
52106;SDS011;38105;52.968;5.974;2023-04-24T13:04:49;6.95;;;1.55;;
52106;SDS011;38105;52.968;5.974;2023-04-24T13:07:15;4.32;;;0.77;;
52106;SDS011;38105;52.968;5.974;2023-04-24T13:09:42;5.90;;;1.02;;
52106;SDS011;38105;52.968;5.974;2023-04-24T13:12:08;7.20;;;1.25;;
52106;SDS011;38105;52.968;5.974;2023-04-24T13:14:34;8.88;;;1.60;;
52106;SDS011;38105;52.968;5.974;2023-04-24T13:17:01;6.53;;;1.25;;
52106;SDS011;38105;52.968;5.974;2023-04-24T13:19:27;8.05;;;1.10;;
52106;SDS011;38105;52.968;5.974;2023-04-24T13:21:53;6.40;;;1.27;;
52106;SDS011;38105;52.968;5.974;2023-04-24T13:24:20;8.95;;;1.27;;
52106;SDS011;38105;52.968;5.974;2023-04-24T13:26:50;11.82;;;1.65;;
52106;SDS011;38105;52.968;5.974;2023-04-24T13:29:16;10.40;;;1.90;;
52106;SDS011;38105;52.968;5.974;2023-04-24T13:31:42;11.38;;;1.90;;
52106;SDS011;38105;52.968;5.974;2023-04-24T13:34:08;11.02;;;1.92;;
52106;SDS011;38105;52.968;5.974;2023-04-24T13:36:34;9.50;;;1.75;;
52106;SDS011;38105;52.968;5.974;2023-04-24T13:39:00;12.70;;;2.10;;
52106;SDS011;38105;52.968;5.974;2023-04-24T13:41:26;9.73;;;1.70;;
52106;SDS011;38105;52.968;5.974;2023-04-24T13:43:51;11.32;;;1.90;;
52106;SDS011;38105;52.968;5.974;2023-04-24T13:46:17;11.60;;;2.33;;
52106;SDS011;38105;52.968;5.974;2023-04-24T13:48:43;13.50;;;2.08;;
52106;SDS011;38105;52.968;5.974;2023-04-24T13:51:09;13.25;;;2.28;;
52106;SDS011;38105;52.968;5.974;2023-04-24T13:53:34;11.50;;;2.05;;
52106;SDS011;38105;52.968;5.974;2023-04-24T13:56:03;15.90;;;2.72;;
52106;SDS011;38105;52.968;5.974;2023-04-24T13:58:29;12.95;;;2.70;;
52106;SDS011;38105;52.968;5.974;2023-04-24T14:00:55;19.23;;;3.08;;
52106;SDS011;38105;52.968;5.974;2023-04-24T14:03:20;13.35;;;2.00;;
52106;SDS011;38105;52.968;5.974;2023-04-24T14:05:46;7.55;;;1.35;;
52106;SDS011;38105;52.968;5.974;2023-04-24T14:08:12;8.95;;;1.73;;
52106;SDS011;38105;52.968;5.974;2023-04-24T14:10:37;7.50;;;1.52;;
52106;SDS011;38105;52.968;5.974;2023-04-24T14:13:08;11.73;;;2.00;;
52106;SDS011;38105;52.968;5.974;2023-04-24T14:15:36;12.07;;;1.83;;
52106;SDS011;38105;52.968;5.974;2023-04-24T14:18:04;9.70;;;1.85;;
52106;SDS011;38105;52.968;5.974;2023-04-24T14:20:30;14.48;;;2.97;;
52106;SDS011;38105;52.968;5.974;2023-04-24T14:22:56;10.00;;;2.10;;
52106;SDS011;38105;52.968;5.974;2023-04-24T14:25:24;17.27;;;2.50;;
52106;SDS011;38105;52.968;5.974;2023-04-24T14:27:53;16.50;;;3.33;;
52106;SDS011;38105;52.968;5.974;2023-04-24T14:30:30;20.90;;;2.85;;
52106;SDS011;38105;52.968;5.974;2023-04-24T14:33:05;15.30;;;2.83;;
52106;SDS011;38105;52.968;5.974;2023-04-24T14:35:38;14.85;;;2.47;;
52106;SDS011;38105;52.968;5.974;2023-04-24T14:38:05;15.02;;;2.70;;
52106;SDS011;38105;52.968;5.974;2023-04-24T14:40:31;9.88;;;2.58;;
52106;SDS011;38105;52.968;5.974;2023-04-24T14:43:00;12.70;;;3.05;;
52106;SDS011;38105;52.968;5.974;2023-04-24T14:45:26;13.70;;;2.75;;
52106;SDS011;38105;52.968;5.974;2023-04-24T14:47:52;14.95;;;3.30;;
52106;SDS011;38105;52.968;5.974;2023-04-24T14:50:18;16.27;;;2.97;;
52106;SDS011;38105;52.968;5.974;2023-04-24T14:52:45;12.82;;;2.97;;
52106;SDS011;38105;52.968;5.974;2023-04-24T14:55:11;11.95;;;2.70;;
52106;SDS011;38105;52.968;5.974;2023-04-24T14:57:37;11.55;;;2.83;;